Decoded Metar for KBKF (BUCKLEY in CO, USA) (IATA:BKF) | Meteo·Mobile Aviation Weather
aviador You're here:

KBKF Decoded Metar

BUCKLEY in CO, USA
Report Time2018-12-13 02:58:00
UTC Time2018-12-13 03:32:03
Flight Rules vfr VFR
Wind360° at 14 Gusting to 18 kt
W.Decomp.*RWY 32: 11.9 kt HW 7.4 kt RCW
Visibility9999 m
Phenomena:N/A
Clouds:Scattered 020 Hf
Broken 050 Hf
Overcast 090 Hf
Expected CloudBase > 4,000 ft AGL from Temp-Dew spread
Ceiling5,000 ft
Temp03°C (ISA -1)
Dew Point-7°C (48% RH)
AAT-4.8°C
QNH1011 hPa
Density Alt5,702 ft
Elevation5,663 ft
Report Wrong Elevation
Raw Report
KBKF 130258Z 36014G18KT 10SM SCT020 BKN050 OVC090 03/M07 A2986 RMK
AO2A RAB04E20SNB20E43 PRESRR SLP097 P0000 60000 T00341071
52046=

Extra information for KBKF:More info

Metar Taf Metar & Taf Last 4 Metars F.Rules Stats Wind Profile Meteogram Temp Stats Airport Information Weather charts Add Link Nearby VenuesMetar ALERT Operation Metar Decoded Social comments

AIRNAV info for KBKF